createdAt,value
2022-12-04T08:32:40.410Z,17.82
2022-12-04T08:32:52.475Z,17.84
2022-12-04T08:33:04.033Z,17.90
2022-12-04T08:33:15.299Z,17.91
2022-12-04T08:33:26.833Z,17.94
2022-12-04T08:33:38.118Z,17.96
2022-12-04T08:33:49.655Z,17.98
2022-12-04T08:34:00.909Z,17.98
2022-12-04T08:34:12.424Z,18.01
2022-12-04T08:34:23.701Z,18.02
2022-12-04T08:34:35.257Z,18.03
2022-12-04T08:34:51.106Z,18.05
2022-12-04T08:34:58.477Z,18.04
2022-12-04T08:35:09.756Z,18.06
2022-12-04T08:35:21.295Z,18.09
2022-12-04T08:35:32.575Z,18.09
2022-12-04T08:35:44.122Z,18.11
2022-12-04T08:35:55.393Z,18.12
2022-12-04T08:36:06.934Z,18.14
2022-12-04T08:36:18.236Z,18.15
2022-12-04T08:36:29.769Z,18.16
2022-12-04T08:36:41.041Z,18.18
2022-12-04T08:36:52.576Z,18.19
2022-12-04T08:37:03.872Z,18.20
2022-12-04T08:37:15.410Z,18.21
2022-12-04T08:37:26.697Z,18.22
2022-12-04T08:37:38.259Z,18.24
2022-12-04T08:37:49.558Z,18.24
2022-12-04T08:38:01.076Z,18.25
2022-12-04T08:38:12.348Z,18.27
2022-12-04T08:38:23.893Z,18.28
2022-12-04T08:38:35.177Z,18.29
2022-12-04T08:38:46.716Z,18.31
2022-12-04T08:38:58.001Z,18.31
2022-12-04T08:39:09.546Z,18.33
2022-12-04T08:39:20.821Z,18.33
2022-12-04T08:39:32.340Z,18.34
2022-12-04T08:39:43.610Z,18.35
2022-12-04T08:39:55.461Z,18.37
2022-12-04T08:40:06.872Z,18.37
2022-12-04T08:40:18.393Z,18.38
2022-12-04T08:40:29.660Z,18.38
2022-12-04T08:40:41.191Z,18.40
2022-12-04T08:40:52.473Z,18.41
2022-12-04T08:41:04.017Z,18.42
2022-12-04T08:41:15.294Z,18.43
2022-12-04T08:41:26.833Z,18.44
2022-12-04T08:41:38.112Z,18.45
2022-12-04T08:41:53.903Z,18.46
2022-12-04T08:42:01.571Z,18.45
2022-12-04T08:42:12.833Z,18.47
2022-12-04T08:42:24.363Z,18.48
2022-12-04T08:42:35.661Z,18.49
2022-12-04T08:42:47.187Z,18.50
2022-12-04T08:42:58.517Z,18.50
2022-12-04T08:43:10.050Z,18.51
2022-12-04T08:43:21.326Z,18.52
2022-12-04T08:43:32.858Z,18.53
2022-12-04T08:43:44.120Z,18.53
2022-12-04T08:43:55.647Z,18.55
2022-12-04T08:44:06.916Z,18.56
2022-12-04T08:44:18.443Z,18.56
2022-12-04T08:44:29.706Z,18.58
2022-12-04T08:44:41.245Z,18.58
2022-12-04T08:44:52.530Z,18.59
2022-12-04T08:45:04.087Z,18.60
2022-12-04T08:45:15.356Z,18.61
2022-12-04T08:45:26.888Z,18.61
2022-12-04T08:45:38.164Z,18.62
2022-12-04T08:45:49.835Z,18.63
2022-12-04T08:46:01.163Z,18.64
2022-12-04T08:46:12.817Z,18.64
2022-12-04T08:46:24.320Z,18.65
2022-12-04T08:46:35.986Z,18.65
2022-12-04T08:46:47.433Z,18.66
2022-12-04T08:46:59.055Z,18.67
2022-12-04T08:47:10.321Z,18.68
2022-12-04T08:47:21.850Z,18.69
2022-12-04T08:47:33.117Z,18.70
2022-12-04T08:47:47.991Z,18.71
2022-12-04T08:47:56.573Z,18.69
2022-12-04T08:48:07.906Z,18.70
2022-12-04T08:48:19.430Z,18.72
2022-12-04T08:48:30.705Z,18.72
2022-12-04T08:48:42.235Z,18.73
2022-12-04T08:48:53.520Z,18.74
2022-12-04T08:49:05.052Z,18.75
2022-12-04T08:49:16.337Z,18.75
2022-12-04T08:49:27.872Z,18.76
2022-12-04T08:49:39.138Z,18.77
2022-12-04T08:49:50.672Z,18.78
2022-12-04T08:50:01.950Z,18.78
2022-12-04T08:50:13.477Z,18.79
2022-12-04T08:50:24.742Z,18.79
2022-12-04T08:50:36.266Z,18.80
2022-12-04T08:50:47.519Z,18.80
2022-12-04T08:50:59.043Z,18.81
2022-12-04T08:51:10.299Z,18.81
2022-12-04T08:51:21.808Z,18.83
2022-12-04T08:51:33.080Z,18.83
2022-12-04T08:51:44.612Z,18.84
2022-12-04T08:51:55.882Z,18.84
2022-12-04T08:52:07.406Z,18.85
2022-12-04T08:52:18.936Z,18.86
2022-12-04T08:52:30.466Z,18.87
2022-12-04T08:52:41.743Z,18.87
2022-12-04T08:52:53.278Z,18.88
2022-12-04T08:53:04.575Z,18.88
2022-12-04T08:53:16.152Z,18.89
2022-12-04T08:53:27.404Z,18.90
2022-12-04T08:53:38.961Z,18.92
2022-12-04T08:53:50.263Z,18.91
2022-12-04T08:54:01.787Z,18.93
2022-12-04T08:54:13.071Z,18.93
2022-12-04T08:54:24.623Z,18.94
2022-12-04T08:54:36.317Z,18.94
2022-12-04T08:54:48.023Z,18.95
2022-12-04T08:54:59.305Z,18.95
2022-12-04T08:55:10.851Z,18.97
2022-12-04T08:55:22.126Z,18.97
2022-12-04T08:55:33.662Z,18.98
2022-12-04T08:55:44.941Z,18.99
2022-12-04T08:55:56.491Z,18.99
2022-12-04T08:56:07.787Z,18.99
2022-12-04T08:56:19.318Z,19.00
2022-12-04T08:56:30.575Z,19.01
2022-12-04T08:56:42.104Z,19.01
2022-12-04T08:56:53.397Z,19.02
2022-12-04T08:57:04.938Z,19.03
2022-12-04T08:57:16.203Z,19.04
2022-12-04T08:57:27.717Z,19.05
2022-12-04T08:57:38.990Z,19.05
2022-12-04T08:57:50.514Z,19.05
2022-12-04T08:58:01.781Z,19.06
2022-12-04T08:58:13.316Z,19.07
2022-12-04T08:58:24.624Z,19.08
2022-12-04T08:58:36.148Z,19.09
2022-12-04T08:58:47.417Z,19.09
2022-12-04T08:58:58.960Z,19.10
2022-12-04T08:59:10.239Z,19.11
2022-12-04T08:59:21.771Z,19.11
2022-12-04T08:59:33.058Z,19.12
2022-12-04T08:59:44.582Z,19.13
2022-12-04T08:59:56.094Z,19.14
2022-12-04T09:00:07.755Z,19.14
2022-12-04T09:00:19.026Z,19.14
2022-12-04T09:00:30.562Z,19.15
2022-12-04T09:00:41.828Z,19.15
2022-12-04T09:00:53.354Z,19.17
2022-12-04T09:01:04.728Z,19.17
2022-12-04T09:01:16.443Z,19.18
2022-12-04T09:01:27.823Z,19.18
2022-12-04T09:01:39.520Z,19.20
2022-12-04T09:01:51.049Z,19.20
2022-12-04T09:02:02.704Z,19.21
2022-12-04T09:02:14.018Z,19.21
2022-12-04T09:02:25.539Z,19.22
2022-12-04T09:02:36.816Z,19.23
2022-12-04T09:02:48.376Z,19.24
2022-12-04T09:02:59.632Z,19.24
2022-12-04T09:03:11.160Z,19.25
2022-12-04T09:03:27.566Z,19.25
2022-12-04T09:03:34.383Z,19.25
2022-12-04T09:03:45.656Z,19.25
2022-12-04T09:03:57.243Z,19.27
2022-12-04T09:04:08.633Z,19.28
2022-12-04T09:04:20.289Z,19.28
2022-12-04T09:04:31.625Z,19.29
2022-12-04T09:04:43.234Z,19.30
2022-12-04T09:04:54.673Z,19.31
2022-12-04T09:05:06.267Z,19.31
2022-12-04T09:05:17.545Z,19.32
2022-12-04T09:05:29.058Z,19.33
2022-12-04T09:05:40.323Z,19.33
2022-12-04T09:05:51.846Z,19.34
2022-12-04T09:06:03.099Z,19.35
2022-12-04T09:06:14.623Z,19.35
2022-12-04T09:06:25.898Z,19.36
2022-12-04T09:06:37.449Z,19.36
2022-12-04T09:06:48.732Z,19.37
2022-12-04T09:07:00.253Z,19.38
2022-12-04T09:07:11.516Z,19.38
2022-12-04T09:07:23.056Z,19.40
2022-12-04T09:07:34.388Z,19.41
2022-12-04T09:07:45.990Z,19.41
2022-12-04T09:07:57.334Z,19.42
2022-12-04T09:08:09.044Z,19.42
2022-12-04T09:08:20.461Z,19.43
2022-12-04T09:08:32.066Z,19.43
2022-12-04T09:08:43.399Z,19.44
2022-12-04T09:08:54.943Z,19.45
2022-12-04T09:09:06.222Z,19.46
2022-12-04T09:09:17.763Z,19.46
2022-12-04T09:09:29.041Z,19.46
2022-12-04T09:09:46.533Z,19.47
2022-12-04T09:09:52.501Z,19.46
2022-12-04T09:10:03.783Z,19.47
2022-12-04T09:10:15.326Z,19.49
2022-12-04T09:10:26.675Z,19.49
2022-12-04T09:10:38.218Z,19.50
2022-12-04T09:10:49.481Z,19.51
2022-12-04T09:11:01.027Z,19.52
2022-12-04T09:11:12.316Z,19.52
2022-12-04T09:11:23.850Z,19.52
2022-12-04T09:11:35.137Z,19.54
2022-12-04T09:11:46.670Z,19.55
2022-12-04T09:11:57.938Z,19.55
2022-12-04T09:12:09.462Z,19.56
2022-12-04T09:12:20.744Z,19.56
2022-12-04T09:12:32.293Z,19.57
2022-12-04T09:12:43.569Z,19.57
2022-12-04T09:12:55.101Z,19.58
2022-12-04T09:13:06.387Z,19.59
2022-12-04T09:13:17.911Z,19.60
2022-12-04T09:13:29.185Z,19.60
2022-12-04T09:13:40.717Z,19.61
2022-12-04T09:13:52.043Z,19.61
2022-12-04T09:14:03.587Z,19.62
2022-12-04T09:14:14.863Z,19.62
2022-12-04T09:14:26.396Z,19.63
2022-12-04T09:14:37.661Z,19.64
2022-12-04T09:14:49.189Z,19.64
2022-12-04T09:15:00.465Z,19.65
2022-12-04T09:15:11.988Z,19.66
2022-12-04T09:15:23.251Z,19.66
2022-12-04T09:15:34.856Z,19.67
2022-12-04T09:15:46.211Z,19.67
2022-12-04T09:15:57.863Z,19.68
2022-12-04T09:16:09.276Z,19.68
2022-12-04T09:16:20.969Z,19.69
2022-12-04T09:16:32.405Z,19.69
2022-12-04T09:16:44.013Z,19.70
2022-12-04T09:16:55.285Z,19.71
2022-12-04T09:17:06.826Z,19.71
2022-12-04T09:17:18.089Z,19.72
2022-12-04T09:17:29.622Z,19.73
2022-12-04T09:17:40.903Z,19.73
2022-12-04T09:17:52.459Z,19.75
2022-12-04T09:18:03.717Z,19.75
2022-12-04T09:18:15.240Z,19.75
2022-12-04T09:18:26.500Z,19.75
2022-12-04T09:18:38.027Z,19.76
2022-12-04T09:18:49.309Z,19.76
2022-12-04T09:19:00.906Z,19.78
2022-12-04T09:19:12.185Z,19.78
2022-12-04T09:19:23.712Z,19.78
2022-12-04T09:19:34.981Z,19.79
2022-12-04T09:19:46.503Z,19.80
2022-12-04T09:20:00.898Z,19.80
2022-12-04T09:20:08.672Z,19.79
2022-12-04T09:20:20.407Z,19.81
2022-12-04T09:20:31.675Z,19.81
2022-12-04T09:20:43.203Z,19.82
2022-12-04T09:20:54.479Z,19.82
2022-12-04T09:21:06.004Z,19.83
2022-12-04T09:21:17.260Z,19.83
2022-12-04T09:21:28.792Z,19.84
2022-12-04T09:21:40.069Z,19.84
2022-12-04T09:21:51.604Z,19.85
2022-12-04T09:22:02.871Z,19.85
2022-12-04T09:22:14.404Z,19.87
2022-12-04T09:22:25.677Z,19.87
2022-12-04T09:23:02.072Z,19.88
2022-12-04T09:23:03.360Z,19.86
2022-12-04T09:23:04.288Z,19.86
2022-12-04T09:23:11.934Z,19.86
2022-12-04T09:23:23.200Z,19.87
2022-12-04T09:23:34.716Z,19.89
2022-12-04T09:23:45.995Z,19.89
2022-12-04T09:23:57.541Z,19.90
2022-12-04T09:24:08.869Z,19.91
2022-12-04T09:24:20.397Z,19.91
2022-12-04T09:24:31.667Z,19.92
2022-12-04T09:24:43.202Z,19.92
2022-12-04T09:24:54.481Z,19.93
2022-12-04T09:25:06.016Z,19.94
2022-12-04T09:25:17.288Z,19.94
2022-12-04T09:25:28.810Z,19.95
2022-12-04T09:25:40.074Z,19.95
2022-12-04T09:25:51.609Z,19.95
2022-12-04T09:26:02.883Z,19.95
2022-12-04T09:26:14.415Z,19.96
2022-12-04T09:26:25.685Z,19.96
2022-12-04T09:26:37.216Z,19.97
2022-12-04T09:26:48.489Z,19.98
2022-12-04T09:27:00.013Z,19.98
2022-12-04T09:27:14.726Z,19.99
2022-12-04T09:27:22.160Z,19.97
2022-12-04T09:27:33.436Z,19.97
2022-12-04T09:27:44.962Z,19.99
2022-12-04T09:27:56.244Z,19.99
2022-12-04T09:28:07.778Z,19.99
2022-12-04T09:28:19.061Z,20.00
2022-12-04T09:28:30.606Z,20.02
2022-12-04T09:28:41.891Z,20.02
2022-12-04T09:28:53.421Z,20.02
2022-12-04T09:29:04.683Z,20.02
2022-12-04T09:29:16.253Z,20.03
2022-12-04T09:29:27.541Z,20.03
2022-12-04T09:29:39.070Z,20.04
2022-12-04T09:29:50.340Z,20.03
2022-12-04T09:30:01.866Z,20.04
2022-12-04T09:30:13.164Z,20.05
2022-12-04T09:30:24.696Z,20.06
2022-12-04T09:30:35.951Z,20.05
2022-12-04T09:30:47.515Z,20.06
2022-12-04T09:30:58.915Z,20.06
2022-12-04T09:31:10.578Z,20.07
2022-12-04T09:31:21.941Z,20.08
2022-12-04T09:31:33.631Z,20.09
2022-12-04T09:31:45.060Z,20.08
2022-12-04T09:31:56.634Z,20.09
2022-12-04T09:32:07.929Z,20.09
2022-12-04T09:32:19.471Z,20.10
2022-12-04T09:32:30.759Z,20.10
2022-12-04T09:32:42.395Z,20.11
2022-12-04T09:32:53.670Z,20.11
2022-12-04T09:33:05.230Z,20.11
2022-12-04T09:33:16.509Z,20.12
2022-12-04T09:33:28.034Z,20.12
2022-12-04T09:33:39.296Z,20.12
2022-12-04T09:33:50.833Z,20.13
2022-12-04T09:34:02.115Z,20.13
2022-12-04T09:34:13.648Z,20.14
2022-12-04T09:34:25.108Z,20.14
2022-12-04T09:34:36.630Z,20.15
2022-12-04T09:34:51.337Z,20.15
2022-12-04T09:34:59.824Z,20.13
2022-12-04T09:35:11.094Z,20.15
2022-12-04T09:35:22.633Z,20.15
2022-12-04T09:35:33.911Z,20.16
2022-12-04T09:35:45.454Z,20.17
2022-12-04T09:35:56.731Z,20.16
2022-12-04T09:36:08.260Z,20.17
2022-12-04T09:36:19.540Z,20.17
2022-12-04T09:36:31.059Z,20.18
2022-12-04T09:36:42.338Z,20.18
2022-12-04T09:36:53.876Z,20.19
2022-12-04T09:37:05.160Z,20.20
2022-12-04T09:37:16.717Z,20.21
2022-12-04T09:37:28.003Z,20.21
2022-12-04T09:37:39.524Z,20.22
2022-12-04T09:37:50.785Z,20.21
2022-12-04T09:38:02.314Z,20.22
2022-12-04T09:38:13.595Z,20.22
2022-12-04T09:38:25.127Z,20.23
2022-12-04T09:38:36.395Z,20.23
2022-12-04T09:38:47.907Z,20.24
2022-12-04T09:38:59.186Z,20.24
2022-12-04T09:39:10.719Z,20.24
2022-12-04T09:39:21.985Z,20.25
2022-12-04T09:39:33.538Z,20.25
2022-12-04T09:39:44.822Z,20.26
2022-12-04T09:39:56.615Z,20.26
2022-12-04T09:40:08.053Z,20.26
2022-12-04T09:40:19.571Z,20.27
2022-12-04T09:40:37.138Z,20.27
2022-12-04T09:40:42.755Z,20.25
2022-12-04T09:40:54.014Z,20.27
2022-12-04T09:41:05.540Z,20.27
2022-12-04T09:41:16.815Z,20.28
2022-12-04T09:41:28.350Z,20.29
2022-12-04T09:41:39.638Z,20.29
2022-12-04T09:41:51.166Z,20.30
2022-12-04T09:42:02.424Z,20.29
2022-12-04T09:42:13.958Z,20.31
2022-12-04T09:42:25.243Z,20.31
2022-12-04T09:42:36.772Z,20.31
2022-12-04T09:42:48.049Z,20.31
2022-12-04T09:42:59.570Z,20.31
2022-12-04T09:43:10.827Z,20.32
2022-12-04T09:43:22.364Z,20.33
2022-12-04T09:43:33.649Z,20.33
2022-12-04T09:43:45.191Z,20.34
2022-12-04T09:43:56.467Z,20.33
2022-12-04T09:44:08.000Z,20.34
2022-12-04T09:44:19.275Z,20.34
2022-12-04T09:44:30.798Z,20.35
2022-12-04T09:44:42.105Z,20.36
2022-12-04T09:44:53.641Z,20.36
2022-12-04T09:45:04.927Z,20.36
2022-12-04T09:45:16.465Z,20.37
2022-12-04T09:45:27.741Z,20.37
2022-12-04T09:45:39.281Z,20.38
2022-12-04T09:45:50.564Z,20.38
2022-12-04T09:46:02.176Z,20.38
2022-12-04T09:46:13.610Z,20.38
2022-12-04T09:46:25.263Z,20.39
2022-12-04T09:46:37.557Z,20.40
2022-12-04T09:46:49.532Z,20.38
2022-12-04T09:46:58.240Z,20.37
2022-12-04T09:47:09.672Z,20.38
2022-12-04T09:47:21.263Z,20.40
2022-12-04T09:47:32.541Z,20.40
2022-12-04T09:47:44.062Z,20.40
2022-12-04T09:47:55.339Z,20.41
2022-12-04T09:48:06.880Z,20.41
2022-12-04T09:48:18.175Z,20.42
2022-12-04T09:48:29.715Z,20.43
2022-12-04T09:48:41.022Z,20.43
2022-12-04T09:48:52.564Z,20.43
2022-12-04T09:49:03.833Z,20.44
2022-12-04T09:49:15.365Z,20.44
2022-12-04T09:49:26.639Z,20.45
2022-12-04T09:49:38.168Z,20.45
2022-12-04T09:49:49.514Z,20.45
2022-12-04T09:50:01.049Z,20.46
2022-12-04T09:50:12.324Z,20.46
2022-12-04T09:50:23.851Z,20.46
2022-12-04T09:50:35.135Z,20.46
2022-12-04T09:50:46.685Z,20.47
2022-12-04T09:50:57.972Z,20.48
2022-12-04T09:51:09.527Z,20.48
2022-12-04T09:51:20.807Z,20.48
2022-12-04T09:51:32.342Z,20.48
2022-12-04T09:51:43.608Z,20.48
2022-12-04T09:51:55.136Z,20.49
2022-12-04T09:52:06.414Z,20.49
2022-12-04T09:52:21.858Z,20.50
2022-12-04T09:52:29.208Z,20.49
2022-12-04T09:52:40.488Z,20.50
2022-12-04T09:52:52.014Z,20.50
2022-12-04T09:53:03.295Z,20.51
2022-12-04T09:53:14.835Z,20.52
2022-12-04T09:53:26.108Z,20.52
2022-12-04T09:53:37.638Z,20.52
2022-12-04T09:53:48.903Z,20.53
2022-12-04T09:54:00.433Z,20.53
2022-12-04T09:54:11.718Z,20.53
2022-12-04T09:54:23.251Z,20.54
2022-12-04T09:54:34.521Z,20.54
2022-12-04T09:54:46.041Z,20.55
2022-12-04T09:54:57.329Z,20.55
2022-12-04T09:55:08.857Z,20.55
2022-12-04T09:55:20.126Z,20.56
2022-12-04T09:55:31.707Z,20.55
2022-12-04T09:55:43.063Z,20.56
2022-12-04T09:55:54.607Z,20.56
2022-12-04T09:56:05.900Z,20.57
2022-12-04T09:56:17.426Z,20.57
2022-12-04T09:56:28.689Z,20.57
2022-12-04T09:56:40.220Z,20.58
2022-12-04T09:56:51.480Z,20.58
2022-12-04T09:57:02.990Z,20.58
2022-12-04T09:57:14.244Z,20.59
2022-12-04T09:57:25.759Z,20.59
2022-12-04T09:57:37.027Z,20.59
2022-12-04T09:57:48.567Z,20.59
2022-12-04T09:58:01.973Z,20.60
2022-12-04T09:58:11.648Z,20.59
2022-12-04T09:58:23.165Z,20.60
2022-12-04T09:58:34.463Z,20.60
2022-12-04T09:58:45.997Z,20.61
2022-12-04T09:58:57.258Z,20.61
2022-12-04T09:59:08.793Z,20.62
2022-12-04T09:59:20.069Z,20.62
2022-12-04T09:59:31.600Z,20.63
2022-12-04T09:59:42.877Z,20.62
2022-12-04T09:59:54.770Z,20.63
2022-12-04T10:00:06.533Z,20.64
2022-12-04T10:00:17.817Z,20.64
2022-12-04T10:00:29.338Z,20.64
2022-12-04T10:00:40.605Z,20.64
2022-12-04T10:00:52.168Z,20.65
2022-12-04T10:01:03.451Z,20.65
2022-12-04T10:01:14.988Z,20.66
2022-12-04T10:01:26.275Z,20.66
2022-12-04T10:01:37.831Z,20.66
2022-12-04T10:01:49.120Z,20.67
2022-12-04T10:02:00.648Z,20.67
2022-12-04T10:02:11.990Z,20.67
2022-12-04T10:02:23.684Z,20.68
2022-12-04T10:02:35.210Z,20.68
2022-12-04T10:02:46.972Z,20.68
2022-12-04T10:02:58.467Z,20.68
2022-12-04T10:03:10.237Z,20.68
2022-12-04T10:03:21.851Z,20.69
2022-12-04T10:03:33.636Z,20.69
2022-12-04T10:03:45.277Z,20.69
2022-12-04T10:04:02.569Z,20.70
2022-12-04T10:04:08.950Z,20.69
2022-12-04T10:04:20.382Z,20.70
2022-12-04T10:04:32.017Z,20.70
2022-12-04T10:04:43.283Z,20.71
2022-12-04T10:04:54.815Z,20.72
2022-12-04T10:05:06.101Z,20.72
2022-12-04T10:05:17.690Z,20.72
2022-12-04T10:05:28.962Z,20.72
2022-12-04T10:05:40.532Z,20.73
2022-12-04T10:05:51.813Z,20.73
2022-12-04T10:06:03.335Z,20.73
2022-12-04T10:06:14.611Z,20.73
2022-12-04T10:06:26.151Z,20.74
2022-12-04T10:06:37.444Z,20.74
2022-12-04T10:06:48.990Z,20.75
2022-12-04T10:07:00.380Z,20.75
2022-12-04T10:07:11.989Z,20.75
2022-12-04T10:07:23.273Z,20.75
2022-12-04T10:07:34.893Z,20.76
2022-12-04T10:07:46.230Z,20.76
2022-12-04T10:07:57.818Z,20.77
2022-12-04T10:08:09.258Z,20.77
2022-12-04T10:08:21.020Z,20.78
2022-12-04T10:08:32.369Z,20.78
2022-12-04T10:08:43.916Z,20.78
2022-12-04T10:08:55.190Z,20.78
2022-12-04T10:09:06.717Z,20.79
2022-12-04T10:09:18.001Z,20.79
2022-12-04T10:09:29.529Z,20.79
2022-12-04T10:09:40.810Z,20.80
2022-12-04T10:09:52.390Z,20.80
2022-12-04T10:10:03.679Z,20.81
2022-12-04T10:10:15.210Z,20.81
2022-12-04T10:10:26.539Z,20.82
2022-12-04T10:10:38.081Z,20.83
2022-12-04T10:10:49.365Z,20.83
2022-12-04T10:11:00.913Z,20.83
2022-12-04T10:11:12.173Z,20.84
2022-12-04T10:11:27.659Z,20.85
2022-12-04T10:11:35.629Z,20.84
2022-12-04T10:11:46.910Z,20.85
2022-12-04T10:11:58.444Z,20.86
2022-12-04T10:12:09.735Z,20.87
2022-12-04T10:12:21.259Z,20.87
2022-12-04T10:12:32.526Z,20.88
2022-12-04T10:12:44.040Z,20.89
2022-12-04T10:12:55.300Z,20.89
2022-12-04T10:13:06.825Z,20.90
2022-12-04T10:13:18.097Z,20.90
2022-12-04T10:13:29.613Z,20.90
2022-12-04T10:13:40.893Z,20.91
2022-12-04T10:13:52.427Z,20.92
2022-12-04T10:14:03.704Z,20.92
2022-12-04T10:14:15.248Z,20.92
2022-12-04T10:14:26.551Z,20.93
2022-12-04T10:14:38.096Z,20.93
2022-12-04T10:14:49.371Z,20.93
2022-12-04T10:15:00.909Z,20.95
2022-12-04T10:15:12.179Z,20.94
2022-12-04T10:15:23.710Z,20.95
2022-12-04T10:15:35.060Z,20.95
2022-12-04T10:15:46.681Z,20.96
2022-12-04T10:15:58.038Z,20.96
2022-12-04T10:16:09.635Z,20.97
2022-12-04T10:16:21.131Z,20.96
2022-12-04T10:16:32.857Z,20.98
2022-12-04T10:16:44.176Z,20.98
2022-12-04T10:16:55.711Z,20.99
2022-12-04T10:17:06.993Z,20.98
2022-12-04T10:17:18.528Z,20.99
2022-12-04T10:17:32.919Z,20.99
2022-12-04T10:17:40.270Z,20.98
2022-12-04T10:17:51.552Z,21.00
2022-12-04T10:18:03.082Z,21.00
2022-12-04T10:18:14.365Z,21.00
2022-12-04T10:18:25.923Z,21.01
2022-12-04T10:18:37.192Z,21.01
2022-12-04T10:18:48.717Z,21.01
2022-12-04T10:19:00.002Z,21.02
2022-12-04T10:19:11.551Z,21.02
2022-12-04T10:19:22.813Z,21.02
2022-12-04T10:19:34.332Z,21.04
2022-12-04T10:19:45.607Z,21.03
2022-12-04T10:19:57.541Z,21.04
2022-12-04T10:20:09.325Z,21.05
2022-12-04T10:20:20.588Z,21.05
2022-12-04T10:20:32.120Z,21.05
2022-12-04T10:20:43.441Z,21.05
2022-12-04T10:20:54.989Z,21.05
2022-12-04T10:21:06.268Z,21.05
2022-12-04T10:21:17.793Z,21.06
2022-12-04T10:21:29.057Z,21.06
2022-12-04T10:21:40.596Z,21.08
2022-12-04T10:21:51.877Z,21.07
2022-12-04T10:22:03.404Z,21.07
2022-12-04T10:22:14.681Z,21.08
2022-12-04T10:22:26.217Z,21.09
2022-12-04T10:22:37.503Z,21.07
2022-12-04T10:22:49.052Z,21.09
2022-12-04T10:23:00.328Z,21.09
2022-12-04T10:23:13.980Z,21.10
2022-12-04T10:23:23.375Z,21.10
2022-12-04T10:23:34.908Z,21.10
2022-12-04T10:23:46.195Z,21.10
2022-12-04T10:23:57.734Z,21.11
2022-12-04T10:24:09.008Z,21.11
2022-12-04T10:24:20.546Z,21.11
2022-12-04T10:24:31.825Z,21.11
2022-12-04T10:24:43.376Z,21.12
2022-12-04T10:24:54.660Z,21.12
2022-12-04T10:25:06.196Z,21.12
2022-12-04T10:25:17.462Z,21.12
2022-12-04T10:25:29.004Z,21.13
2022-12-04T10:25:40.292Z,21.13
2022-12-04T10:25:51.857Z,21.14
2022-12-04T10:26:03.131Z,21.14
2022-12-04T10:26:14.677Z,21.15
2022-12-04T10:26:25.962Z,21.14
2022-12-04T10:26:37.491Z,21.15
2022-12-04T10:26:48.775Z,21.15
2022-12-04T10:27:00.321Z,21.16
2022-12-04T10:27:11.595Z,21.16
2022-12-04T10:27:23.135Z,21.16
2022-12-04T10:27:34.410Z,21.16
2022-12-04T10:27:45.935Z,21.17
2022-12-04T10:27:57.241Z,21.18
2022-12-04T10:28:08.788Z,21.17
2022-12-04T10:28:20.063Z,21.18
2022-12-04T10:28:31.581Z,21.18
2022-12-04T10:28:42.864Z,21.18
2022-12-04T10:28:55.639Z,21.18
2022-12-04T10:29:04.889Z,21.19
2022-12-04T10:29:16.421Z,21.19
2022-12-04T10:29:27.695Z,21.19
2022-12-04T10:29:39.224Z,21.20
2022-12-04T10:29:50.498Z,21.19
2022-12-04T10:30:02.027Z,21.20
2022-12-04T10:30:13.340Z,21.21
2022-12-04T10:30:24.886Z,21.20
2022-12-04T10:30:36.171Z,21.21
2022-12-04T10:30:47.804Z,21.21
2022-12-04T10:30:59.208Z,21.21
2022-12-04T10:31:10.822Z,21.21
2022-12-04T10:31:22.255Z,21.22
2022-12-04T10:31:34.000Z,21.22
2022-12-04T10:31:45.413Z,21.21
2022-12-04T10:31:57.007Z,21.23
2022-12-04T10:32:08.313Z,21.23
2022-12-04T10:32:19.843Z,21.23
2022-12-04T10:32:31.110Z,21.23
2022-12-04T10:32:42.646Z,21.24
2022-12-04T10:32:53.941Z,21.24
2022-12-04T10:33:05.480Z,21.24
2022-12-04T10:33:16.754Z,21.24
2022-12-04T10:33:28.313Z,21.24
2022-12-04T10:33:39.613Z,21.24
2022-12-04T10:33:51.134Z,21.25
2022-12-04T10:34:02.408Z,21.25
2022-12-04T10:34:13.936Z,21.26
2022-12-04T10:34:25.223Z,21.25
2022-12-04T10:34:41.152Z,21.26
2022-12-04T10:34:48.685Z,21.25
2022-12-04T10:34:59.956Z,21.26
2022-12-04T10:35:11.509Z,21.26
2022-12-04T10:35:22.795Z,21.27
2022-12-04T10:35:34.320Z,21.27
2022-12-04T10:35:45.585Z,21.27
2022-12-04T10:35:57.124Z,21.28
2022-12-04T10:36:08.447Z,21.28
2022-12-04T10:36:19.967Z,21.28
2022-12-04T10:36:31.232Z,21.28
2022-12-04T10:36:42.778Z,21.29
2022-12-04T10:36:54.068Z,21.29
2022-12-04T10:37:05.607Z,21.30
2022-12-04T10:37:16.898Z,21.30
2022-12-04T10:37:28.439Z,21.30
2022-12-04T10:37:39.719Z,21.30
2022-12-04T10:37:51.266Z,21.31
2022-12-04T10:38:02.543Z,21.31
2022-12-04T10:38:14.064Z,21.31
2022-12-04T10:38:25.317Z,21.31
2022-12-04T10:38:36.837Z,21.31
2022-12-04T10:38:48.106Z,21.32
2022-12-04T10:38:59.626Z,21.33
2022-12-04T10:39:10.895Z,21.32
2022-12-04T10:39:22.424Z,21.33
2022-12-04T10:39:33.706Z,21.34
2022-12-04T10:39:45.250Z,21.33
2022-12-04T10:39:56.740Z,21.34
2022-12-04T10:40:08.451Z,21.34
2022-12-04T10:40:19.730Z,21.34
2022-12-04T10:40:31.372Z,21.35
2022-12-04T10:40:42.659Z,21.35
2022-12-04T10:40:54.201Z,21.35
2022-12-04T10:41:08.863Z,21.35
2022-12-04T10:41:17.441Z,21.34
2022-12-04T10:41:28.726Z,21.35
2022-12-04T10:41:40.265Z,21.35
2022-12-04T10:41:51.543Z,21.36
2022-12-04T10:42:03.067Z,21.36
2022-12-04T10:42:14.353Z,21.37
2022-12-04T10:42:25.883Z,21.37
2022-12-04T10:42:37.164Z,21.37
2022-12-04T10:42:48.698Z,21.38
2022-12-04T10:42:59.975Z,21.38
2022-12-04T10:43:11.506Z,21.38
2022-12-04T10:43:22.772Z,21.38
2022-12-04T10:43:34.304Z,21.39
2022-12-04T10:43:45.577Z,21.39
2022-12-04T10:43:57.143Z,21.39
2022-12-04T10:44:08.418Z,21.40
2022-12-04T10:44:19.955Z,21.41
2022-12-04T10:44:31.238Z,21.40
2022-12-04T10:44:42.786Z,21.41
2022-12-04T10:44:54.056Z,21.40
2022-12-04T10:45:05.578Z,21.41
2022-12-04T10:45:16.853Z,21.42
2022-12-04T10:45:28.384Z,21.42
2022-12-04T10:45:39.707Z,21.42
2022-12-04T10:45:51.237Z,21.43
2022-12-04T10:46:02.552Z,21.43
2022-12-04T10:46:14.199Z,21.44
2022-12-04T10:46:25.662Z,21.43
2022-12-04T10:46:39.589Z,21.43
2022-12-04T10:46:49.228Z,21.42
2022-12-04T10:47:00.744Z,21.43
2022-12-04T10:47:12.444Z,21.44
2022-12-04T10:47:23.788Z,21.44
2022-12-04T10:47:35.309Z,21.44
2022-12-04T10:47:46.577Z,21.45
2022-12-04T10:47:58.106Z,21.45
2022-12-04T10:48:09.383Z,21.45
2022-12-04T10:48:20.914Z,21.46
2022-12-04T10:48:32.192Z,21.46
2022-12-04T10:48:43.751Z,21.46
2022-12-04T10:48:55.027Z,21.46
2022-12-04T10:49:06.555Z,21.46
2022-12-04T10:49:17.819Z,21.47
2022-12-04T10:49:29.352Z,21.48
2022-12-04T10:49:40.643Z,21.47
2022-12-04T10:49:52.176Z,21.48
2022-12-04T10:50:03.463Z,21.47
2022-12-04T10:50:14.993Z,21.49
2022-12-04T10:50:26.271Z,21.49
2022-12-04T10:50:37.815Z,21.49
2022-12-04T10:50:49.125Z,21.49
2022-12-04T10:51:00.671Z,21.50
2022-12-04T10:51:11.951Z,21.50
2022-12-04T10:51:23.482Z,21.50
2022-12-04T10:51:34.790Z,21.50
2022-12-04T10:51:46.330Z,21.51
2022-12-04T10:51:57.602Z,21.51
2022-12-04T10:52:09.158Z,21.52
2022-12-04T10:52:20.432Z,21.52
2022-12-04T10:52:31.952Z,21.52
2022-12-04T10:52:43.225Z,21.52
2022-12-04T10:52:54.759Z,21.52
2022-12-04T10:53:09.521Z,21.53
2022-12-04T10:53:17.970Z,21.50
2022-12-04T10:53:29.249Z,21.52
2022-12-04T10:53:40.789Z,21.52
2022-12-04T10:53:52.064Z,21.52
2022-12-04T10:54:03.605Z,21.53
2022-12-04T10:54:14.889Z,21.53
2022-12-04T10:54:26.447Z,21.54
2022-12-04T10:54:37.722Z,21.54
2022-12-04T10:54:49.256Z,21.54
2022-12-04T10:55:00.523Z,21.55
2022-12-04T10:55:12.043Z,21.55
2022-12-04T10:55:23.309Z,21.55
2022-12-04T10:55:34.851Z,21.55
2022-12-04T10:55:46.131Z,21.56
2022-12-04T10:55:57.672Z,21.56
2022-12-04T10:56:08.936Z,21.57
2022-12-04T10:56:20.488Z,21.57
2022-12-04T10:56:31.765Z,21.57
2022-12-04T10:56:43.335Z,21.57
2022-12-04T10:56:54.609Z,21.57
2022-12-04T10:57:06.144Z,21.57
2022-12-04T10:57:17.438Z,21.58
2022-12-04T10:57:28.983Z,21.59
2022-12-04T10:57:40.258Z,21.59
2022-12-04T10:57:51.773Z,21.59
2022-12-04T10:58:03.047Z,21.59
2022-12-04T10:58:14.576Z,21.59
2022-12-04T10:58:25.848Z,21.60
2022-12-04T10:58:37.381Z,21.60
2022-12-04T10:58:48.642Z,21.60
2022-12-04T10:59:00.170Z,21.60
2022-12-04T10:59:11.452Z,21.61
2022-12-04T10:59:22.986Z,21.61
2022-12-04T10:59:34.263Z,21.62
2022-12-04T10:59:45.788Z,21.62